SPJL/JUL METAR and TAF weather

Enter ICAO airport designator
Station Type Date Time Source
SPJL METAR 2019/12/16 01:00 UTC NOAA

SPJL 160100Z 29007KT 9999 SCT010 BKN100 08/03 Q1035 RMK PP000


Station Type Date Time Source
SPJL Decoded METAR 2019/12/16 01:00 UTC NOAA

Juliaca, Peru (SPJL) 15-29S 070-09W 3827M
Dec 15, 2019 - 08:00 PM EST / 2019.12.16 0100 UTC
Wind: from the WNW (290 degrees) at 8 MPH (7 KT):0
Visibility: greater than 7 mile(s):0
Sky conditions: mostly cloudy
Temperature: 46 F (8 C)
Dew Point: 37 F (3 C)
Relative Humidity: 70%
Pressure (altimeter): 30.56 in. Hg (1035 hPa)
ob: SPJL 160100Z 29007KT 9999 SCT010 BKN100 08/03 Q1035 RMK PP000
cycle: 1

Station Type Date Time Source
SPJL TAF 2019/12/15 18:33 UTC NOAA

TAF SPJL 151700Z 1518/1618 14006KT 9999 SCT020 SCT100 TX17/1618Z TN05/1610Z
FM152100 13015KT 9999 SCT020 SCT080
FM160000 15003KT 9999 BKN012

Example: see airport list